createdAt,value
2019-02-09T00:00:11.658Z,11.37
2019-02-09T00:05:17.454Z,8.80
2019-02-09T00:10:21.650Z,9.93
2019-02-09T00:15:27.071Z,10.60
2019-02-09T00:20:31.234Z,10.40
2019-02-09T00:25:36.175Z,10.70
2019-02-09T00:30:40.353Z,9.27
2019-02-09T00:35:45.267Z,10.73
2019-02-09T00:40:49.470Z,12.60
2019-02-09T00:45:54.932Z,12.40
2019-02-09T00:50:59.136Z,11.20
2019-02-09T00:56:05.076Z,11.57
2019-02-09T01:01:09.265Z,13.63
2019-02-09T01:06:14.630Z,13.30
2019-02-09T01:11:18.799Z,14.93
2019-02-09T01:16:24.232Z,12.30
2019-02-09T01:21:28.403Z,13.27
2019-02-09T01:26:32.925Z,10.77
2019-02-09T01:31:37.165Z,10.20
2019-02-09T01:36:41.420Z,11.37
2019-02-09T01:41:45.602Z,10.00
2019-02-09T01:46:49.863Z,10.43
2019-02-09T01:51:54.040Z,10.30
2019-02-09T01:56:59.126Z,10.03
2019-02-09T02:02:03.315Z,9.83
2019-02-09T02:07:07.622Z,8.40
2019-02-09T02:12:12.213Z,6.87
2019-02-09T02:17:17.295Z,8.10
2019-02-09T02:22:21.581Z,8.60
2019-02-09T02:27:25.872Z,10.57
2019-02-09T02:32:30.072Z,11.90
2019-02-09T02:37:34.451Z,9.90
2019-02-09T02:42:39.715Z,14.77
2019-02-09T02:47:44.535Z,12.43
2019-02-09T02:52:48.752Z,13.33
2019-02-09T02:57:53.439Z,14.60
2019-02-09T03:02:57.648Z,12.27
2019-02-09T03:08:02.291Z,12.73
2019-02-09T03:13:06.463Z,11.20
2019-02-09T03:18:11.090Z,10.63
2019-02-09T03:23:15.266Z,10.03
2019-02-09T03:28:20.266Z,11.33
2019-02-09T03:33:24.558Z,8.67
2019-02-09T03:38:28.843Z,9.60
2019-02-09T03:43:33.047Z,9.53
2019-02-09T03:48:37.227Z,9.63
2019-02-09T03:53:41.403Z,9.70
2019-02-09T03:58:45.584Z,10.10
2019-02-09T04:03:49.772Z,9.50
2019-02-09T04:08:54.141Z,9.57
2019-02-09T04:13:58.331Z,11.03
2019-02-09T04:19:02.547Z,9.57
2019-02-09T04:24:06.758Z,10.43
2019-02-09T04:29:12.223Z,8.60
2019-02-09T04:34:16.444Z,12.63
2019-02-09T04:39:21.978Z,10.17
2019-02-09T04:44:26.252Z,12.67
2019-02-09T04:49:30.447Z,11.57
2019-02-09T04:54:34.635Z,11.57
2019-02-09T04:59:40.191Z,9.30
2019-02-09T05:04:44.371Z,9.30
2019-02-09T05:09:48.548Z,9.43
2019-02-09T05:14:52.749Z,9.50
2019-02-09T05:19:56.929Z,10.83
2019-02-09T05:25:01.178Z,10.93
2019-02-09T05:30:06.588Z,10.33
2019-02-09T05:35:11.817Z,9.80
2019-02-09T05:40:16.897Z,9.37
2019-02-09T05:45:21.843Z,8.40
2019-02-09T05:50:26.112Z,6.87
2019-02-09T05:55:30.286Z,8.33
2019-02-09T06:00:40.403Z,6.97
2019-02-09T06:05:46.423Z,7.00
2019-02-09T06:10:50.600Z,4.87
2019-02-09T06:15:54.894Z,5.37
2019-02-09T06:20:59.126Z,3.97
2019-02-09T06:26:04.603Z,6.70
2019-02-09T06:31:08.783Z,7.60
2019-02-09T06:36:13.113Z,6.87
2019-02-09T06:41:17.312Z,5.53
2019-02-09T06:46:21.539Z,5.97
2019-02-09T06:51:25.707Z,3.50
2019-02-09T06:56:31.387Z,1.90
2019-02-09T07:01:35.554Z,1.93
2019-02-09T07:06:39.793Z,1.83
2019-02-09T07:11:43.975Z,2.03
2019-02-09T07:16:48.295Z,1.77
2019-02-09T07:21:52.456Z,1.63
2019-02-09T07:26:57.938Z,1.67
2019-02-09T07:32:02.135Z,1.80
2019-02-09T07:37:06.727Z,1.67
2019-02-09T07:42:10.921Z,1.60
2019-02-09T07:47:15.805Z,1.67
2019-02-09T07:52:22.164Z,1.60
2019-02-09T07:57:28.202Z,1.90
2019-02-09T08:02:32.398Z,2.30
2019-02-09T08:07:37.368Z,2.10
2019-02-09T08:12:42.095Z,1.83
2019-02-09T08:17:46.890Z,1.77
2019-02-09T08:22:51.446Z,1.80
2019-02-09T08:27:55.829Z,1.40
2019-02-09T08:33:00.036Z,1.60
2019-02-09T08:38:04.546Z,2.00
2019-02-09T08:43:09.872Z,1.70
2019-02-09T08:48:14.539Z,1.60
2019-02-09T08:53:19.819Z,1.30
2019-02-09T08:58:24.986Z,1.23
2019-02-09T09:03:29.186Z,2.33
2019-02-09T09:08:33.962Z,1.17
2019-02-09T09:13:38.376Z,1.50
2019-02-09T09:18:43.063Z,1.10
2019-02-09T09:23:47.537Z,1.27
2019-02-09T09:28:52.178Z,1.20
2019-02-09T09:33:56.375Z,1.20
2019-02-09T09:39:01.866Z,1.30
2019-02-09T09:44:06.650Z,1.15
2019-02-09T09:49:13.962Z,1.20
2019-02-09T09:54:18.517Z,1.40
2019-02-09T09:59:24.423Z,1.30
2019-02-09T10:04:28.895Z,1.70
2019-02-09T10:09:34.774Z,1.40
2019-02-09T10:14:41.206Z,1.25
2019-02-09T10:19:47.155Z,1.07
2019-02-09T10:24:52.606Z,1.10
2019-02-09T10:30:08.566Z,1.32
2019-02-09T10:35:13.827Z,1.10
2019-02-09T10:40:22.797Z,0.95
2019-02-09T10:45:30.693Z,0.80
2019-02-09T10:50:37.879Z,0.90
2019-02-09T10:55:42.358Z,1.00
2019-02-09T11:00:54.470Z,1.15
2019-02-09T11:05:59.011Z,1.10
2019-02-09T11:11:07.021Z,1.00
2019-02-09T11:16:13.192Z,0.87
2019-02-09T11:21:18.654Z,0.90
2019-02-09T11:26:22.981Z,1.07
2019-02-09T11:31:28.429Z,0.90
2019-02-09T11:36:32.703Z,1.05
2019-02-09T11:41:38.251Z,0.98
2019-02-09T11:46:42.442Z,1.17
2019-02-09T11:51:49.296Z,1.17
2019-02-09T11:56:53.645Z,1.22
2019-02-09T12:01:57.871Z,1.20
2019-02-09T12:07:04.168Z,1.30
2019-02-09T12:12:09.898Z,1.60
2019-02-09T12:17:14.362Z,1.10
2019-02-09T12:22:20.310Z,1.30
2019-02-09T12:27:24.502Z,1.30
2019-02-09T12:32:29.726Z,1.47
2019-02-09T12:37:34.208Z,1.30
2019-02-09T12:42:39.420Z,0.95
2019-02-09T12:47:43.908Z,1.50
2019-02-09T12:52:48.708Z,1.00
2019-02-09T12:57:53.169Z,1.53
2019-02-09T13:02:58.838Z,1.37
2019-02-09T13:08:03.080Z,1.00
2019-02-09T13:13:08.003Z,1.37
2019-02-09T13:18:12.527Z,1.47
2019-02-09T13:23:17.914Z,1.30
2019-02-09T13:28:22.408Z,1.20
2019-02-09T13:33:27.311Z,1.10
2019-02-09T13:38:31.543Z,1.20
2019-02-09T13:43:36.587Z,1.23
2019-02-09T13:48:40.849Z,0.90
2019-02-09T13:53:46.275Z,1.03
2019-02-09T13:58:50.783Z,1.13
2019-02-09T14:03:56.074Z,1.50
2019-02-09T14:09:00.654Z,1.10
2019-02-09T14:14:06.224Z,1.00
2019-02-09T14:19:10.743Z,1.83
2019-02-09T14:24:15.097Z,1.57
2019-02-09T14:29:19.386Z,1.20
2019-02-09T14:34:24.359Z,1.30
2019-02-09T14:39:28.642Z,1.25
2019-02-09T14:44:33.302Z,1.20
2019-02-09T14:49:37.495Z,1.40
2019-02-09T14:54:43.429Z,0.98
2019-02-09T14:59:47.980Z,1.52
2019-02-09T15:04:52.813Z,1.40
2019-02-09T15:09:57.306Z,1.43
2019-02-09T15:15:02.695Z,1.80
2019-02-09T15:20:09.264Z,1.43
2019-02-09T15:25:14.139Z,1.37
2019-02-09T15:30:19.722Z,1.27
2019-02-09T15:35:23.935Z,1.95
2019-02-09T15:40:28.457Z,2.23
2019-02-09T15:45:33.643Z,1.60
2019-02-09T15:50:37.872Z,1.20
2019-02-09T15:55:43.371Z,1.70
2019-02-09T16:00:47.578Z,1.43
2019-02-09T16:05:52.209Z,1.30
2019-02-09T16:10:56.495Z,1.33
2019-02-09T16:16:01.814Z,1.20
2019-02-09T16:21:06.179Z,1.45
2019-02-09T16:26:10.882Z,1.73
2019-02-09T16:31:15.064Z,1.35
2019-02-09T16:36:20.071Z,1.10
2019-02-09T16:41:24.370Z,1.97
2019-02-09T16:46:28.884Z,2.00
2019-02-09T16:51:33.153Z,1.70
2019-02-09T16:56:38.240Z,1.40
2019-02-09T17:01:44.469Z,1.40
2019-02-09T17:06:49.856Z,1.37
2019-02-09T17:11:54.038Z,1.80
2019-02-09T17:16:58.370Z,1.40
2019-02-09T17:22:02.570Z,1.43
2019-02-09T17:27:06.945Z,1.40
2019-02-09T17:32:11.135Z,1.50
2019-02-09T17:37:15.688Z,1.60
2019-02-09T17:42:19.898Z,1.60
2019-02-09T17:47:24.377Z,1.30
2019-02-09T17:52:28.592Z,1.60
2019-02-09T17:57:33.571Z,1.60
2019-02-09T18:02:37.751Z,2.07
2019-02-09T18:07:42.531Z,2.50
2019-02-09T18:12:46.939Z,2.17
2019-02-09T18:17:51.984Z,1.80
2019-02-09T18:22:56.583Z,1.50
2019-02-09T18:28:00.990Z,1.63
2019-02-09T18:33:06.585Z,1.47
2019-02-09T18:38:12.471Z,1.63
2019-02-09T18:43:16.781Z,1.60
2019-02-09T18:48:21.337Z,1.97
2019-02-09T18:53:25.558Z,1.50
2019-02-09T18:58:30.092Z,2.00
2019-02-09T19:03:34.267Z,2.47
2019-02-09T19:08:39.287Z,2.43
2019-02-09T19:13:43.487Z,1.90
2019-02-09T19:18:48.151Z,1.60
2019-02-09T19:23:52.352Z,1.97
2019-02-09T19:28:56.817Z,1.53
2019-02-09T19:34:02.491Z,2.10
2019-02-09T19:39:09.515Z,1.27
2019-02-09T19:44:14.085Z,1.87
2019-02-09T19:49:18.965Z,1.63
2019-02-09T19:54:23.179Z,1.10
2019-02-09T19:59:27.854Z,1.57
2019-02-09T20:04:32.034Z,1.10
2019-02-09T20:09:36.467Z,1.47
2019-02-09T20:14:40.680Z,1.50
2019-02-09T20:19:45.827Z,1.33
2019-02-09T20:24:50.009Z,1.60
2019-02-09T20:29:54.289Z,1.13
2019-02-09T20:34:58.463Z,1.53
2019-02-09T20:40:03.888Z,0.80
2019-02-09T20:45:09.154Z,1.43
2019-02-09T20:50:15.420Z,1.70
2019-02-09T20:55:19.863Z,1.40
2019-02-09T21:00:24.523Z,1.23
2019-02-09T21:05:36.192Z,1.30
2019-02-09T21:10:35.654Z,1.30
2019-02-09T21:15:39.880Z,1.30
2019-02-09T21:20:44.584Z,1.27
2019-02-09T21:25:49.974Z,1.20
2019-02-09T21:30:54.394Z,2.17
2019-02-09T21:35:58.606Z,1.20
2019-02-09T21:41:03.101Z,1.63
2019-02-09T21:46:07.571Z,2.30
2019-02-09T21:51:12.730Z,1.80
2019-02-09T21:56:16.966Z,2.17
2019-02-09T22:01:21.947Z,1.73
2019-02-09T22:06:26.134Z,1.37
2019-02-09T22:11:31.119Z,1.80
2019-02-09T22:16:38.334Z,1.90
2019-02-09T22:21:42.700Z,1.30
2019-02-09T22:26:48.014Z,1.87
2019-02-09T22:31:52.274Z,1.70
2019-02-09T22:36:56.507Z,1.20
2019-02-09T22:42:01.150Z,1.57
2019-02-09T22:47:05.347Z,1.40
2019-02-09T22:52:09.610Z,1.37
2019-02-09T22:57:13.774Z,1.17
2019-02-09T23:02:18.876Z,1.30
2019-02-09T23:07:24.564Z,1.27
2019-02-09T23:12:29.092Z,1.60
2019-02-09T23:17:33.282Z,1.30
2019-02-09T23:22:37.577Z,1.30
2019-02-09T23:27:41.770Z,1.33
2019-02-09T23:32:46.652Z,1.70
2019-02-09T23:37:50.810Z,1.90
2019-02-09T23:42:55.842Z,1.80
2019-02-09T23:48:00.002Z,1.20
2019-02-09T23:53:04.592Z,1.40
2019-02-09T23:58:08.776Z,1.80
